createdAt,value
2022-10-22T00:00:40.596Z,31.23
2022-10-22T00:03:07.822Z,33.78
2022-10-22T00:05:35.009Z,37.88
2022-10-22T00:08:02.180Z,34.70
2022-10-22T00:10:29.346Z,36.90
2022-10-22T00:12:56.510Z,43.25
2022-10-22T00:15:23.862Z,35.30
2022-10-22T00:17:54.104Z,42.50
2022-10-22T00:20:21.453Z,34.28
2022-10-22T00:22:48.627Z,34.83
2022-10-22T00:25:16.098Z,40.38
2022-10-22T00:27:43.593Z,39.40
2022-10-22T00:30:11.023Z,42.25
2022-10-22T00:32:38.309Z,41.95
2022-10-22T00:35:05.910Z,38.78
2022-10-22T00:37:33.129Z,39.45
2022-10-22T00:40:00.305Z,39.75
2022-10-22T00:42:30.235Z,42.90
2022-10-22T00:45:12.487Z,44.05
2022-10-22T00:47:51.988Z,36.42
2022-10-22T00:50:22.046Z,39.95
2022-10-22T00:52:50.150Z,35.83
2022-10-22T00:55:18.456Z,39.65
2022-10-22T00:57:46.286Z,36.25
2022-10-22T01:00:13.764Z,42.50
2022-10-22T01:02:41.222Z,43.35
2022-10-22T01:05:08.775Z,37.65
2022-10-22T01:07:38.929Z,39.70
2022-10-22T01:10:09.698Z,32.17
2022-10-22T01:12:55.694Z,35.80
2022-10-22T01:15:46.166Z,36.33
2022-10-22T01:18:22.163Z,35.88
2022-10-22T01:20:58.057Z,34.17
2022-10-22T01:23:25.241Z,30.48
2022-10-22T01:25:59.620Z,30.80
2022-10-22T01:28:45.486Z,32.75
2022-10-22T01:31:14.323Z,33.65
2022-10-22T01:33:41.921Z,35.80
2022-10-22T01:36:09.474Z,37.45
2022-10-22T01:38:37.168Z,33.92
2022-10-22T01:41:04.409Z,31.90
2022-10-22T01:43:31.560Z,36.17
2022-10-22T01:45:59.858Z,38.20
2022-10-22T01:48:27.353Z,39.33
2022-10-22T01:51:13.197Z,43.00
2022-10-22T01:56:07.455Z,41.35
2022-10-22T01:58:37.339Z,40.33
2022-10-22T02:01:08.537Z,37.13
2022-10-22T02:03:42.085Z,39.40
2022-10-22T02:06:12.435Z,37.05
2022-10-22T02:08:39.981Z,34.72
2022-10-22T02:11:07.426Z,34.65
2022-10-22T02:13:38.545Z,41.45
2022-10-22T02:16:07.576Z,36.85
2022-10-22T02:18:38.767Z,39.33
2022-10-22T02:23:35.016Z,38.83
2022-10-22T02:26:12.745Z,40.47
2022-10-22T02:28:43.795Z,36.28
2022-10-22T02:31:14.953Z,38.30
2022-10-22T02:33:44.276Z,34.75
2022-10-22T02:36:11.876Z,35.22
2022-10-22T02:38:39.704Z,34.22
2022-10-22T02:41:06.980Z,35.30
2022-10-22T02:43:39.878Z,35.65
2022-10-22T02:46:07.120Z,27.33
2022-10-22T02:48:34.309Z,34.53
2022-10-22T02:51:01.428Z,33.75
2022-10-22T02:53:28.562Z,33.05
2022-10-22T02:55:55.758Z,34.58
2022-10-22T02:58:22.891Z,32.65
2022-10-22T03:00:50.039Z,30.75
2022-10-22T03:03:17.344Z,29.48
2022-10-22T03:05:44.497Z,36.78
2022-10-22T03:08:11.764Z,35.45
2022-10-22T03:10:38.898Z,32.55
2022-10-22T03:13:06.021Z,36.40
2022-10-22T03:15:33.171Z,34.88
2022-10-22T03:18:00.452Z,33.55
2022-10-22T03:20:27.852Z,27.38
2022-10-22T03:22:55.881Z,31.42
2022-10-22T03:25:24.745Z,28.60
2022-10-22T03:27:53.171Z,32.35
2022-10-22T03:30:20.492Z,36.85
2022-10-22T03:32:47.637Z,30.35
2022-10-22T03:35:14.953Z,27.45
2022-10-22T03:37:42.855Z,30.85
2022-10-22T03:40:11.527Z,32.50
2022-10-22T03:42:38.701Z,27.65
2022-10-22T03:45:06.254Z,33.47
2022-10-22T03:47:33.423Z,34.58
2022-10-22T03:50:00.648Z,33.85
2022-10-22T03:52:28.037Z,29.33
2022-10-22T03:54:55.229Z,32.67
2022-10-22T03:57:22.375Z,32.33
2022-10-22T03:59:50.935Z,30.70
2022-10-22T04:02:18.134Z,28.67
2022-10-22T04:04:45.285Z,29.73
2022-10-22T04:07:12.413Z,35.28
2022-10-22T04:09:39.585Z,31.27
2022-10-22T04:12:07.985Z,35.45
2022-10-22T04:14:35.191Z,31.13
2022-10-22T04:17:02.617Z,33.22
2022-10-22T04:19:29.940Z,34.88
2022-10-22T04:21:59.393Z,29.77
2022-10-22T04:24:26.730Z,31.90
2022-10-22T04:26:57.092Z,29.80
2022-10-22T04:29:24.445Z,39.92
2022-10-22T04:31:51.645Z,40.50
2022-10-22T04:34:18.780Z,36.03
2022-10-22T04:36:45.954Z,36.22
2022-10-22T04:39:13.097Z,41.97
2022-10-22T04:41:40.305Z,37.53
2022-10-22T04:44:12.242Z,45.25
2022-10-22T04:46:43.153Z,39.00
2022-10-22T04:49:10.402Z,38.40
2022-10-22T04:51:37.588Z,40.25
2022-10-22T04:54:05.004Z,40.78
2022-10-22T04:56:32.864Z,57.70
2022-10-22T04:59:09.615Z,44.72
2022-10-22T05:01:43.984Z,51.88
2022-10-22T05:04:15.797Z,46.42
2022-10-22T05:06:43.306Z,44.50
2022-10-22T05:09:17.656Z,46.70
2022-10-22T05:11:46.391Z,51.17
2022-10-22T05:14:13.769Z,48.70
2022-10-22T05:16:40.974Z,52.63
2022-10-22T05:19:08.320Z,45.45
2022-10-22T05:21:35.800Z,36.83
2022-10-22T05:24:04.052Z,48.63
2022-10-22T05:26:31.221Z,49.83
2022-10-22T05:28:58.345Z,46.28
2022-10-22T05:31:26.172Z,46.03
2022-10-22T05:33:53.316Z,41.75
2022-10-22T05:36:21.430Z,53.63
2022-10-22T05:38:48.657Z,50.20
2022-10-22T05:41:17.456Z,44.42
2022-10-22T05:43:44.882Z,41.30
2022-10-22T05:46:16.559Z,50.00
2022-10-22T05:48:49.067Z,52.42
2022-10-22T05:51:16.293Z,44.45
2022-10-22T05:53:43.952Z,50.05
2022-10-22T05:56:15.584Z,43.63
2022-10-22T05:58:43.728Z,48.00
2022-10-22T06:01:16.920Z,41.97
2022-10-22T06:03:44.543Z,40.60
2022-10-22T06:06:33.142Z,43.85
2022-10-22T06:09:05.909Z,50.70
2022-10-22T06:11:35.126Z,39.33
2022-10-22T06:14:02.643Z,39.17
2022-10-22T06:16:30.408Z,43.17
2022-10-22T06:18:59.532Z,39.40
2022-10-22T06:21:26.659Z,43.60
2022-10-22T06:23:53.801Z,48.20
2022-10-22T06:26:20.908Z,43.10
2022-10-22T06:28:48.097Z,41.85
2022-10-22T06:31:15.216Z,43.17
2022-10-22T06:33:43.320Z,44.88
2022-10-22T06:36:14.668Z,43.92
2022-10-22T06:38:42.333Z,40.70
2022-10-22T06:41:11.049Z,43.25
2022-10-22T06:43:38.329Z,38.38
2022-10-22T06:46:07.432Z,47.35
2022-10-22T06:48:36.103Z,47.00
2022-10-22T06:51:04.081Z,45.55
2022-10-22T06:53:31.497Z,38.00
2022-10-22T06:55:58.640Z,44.20
2022-10-22T06:58:26.033Z,38.90
2022-10-22T07:01:01.693Z,39.17
2022-10-22T07:03:28.903Z,39.17
2022-10-22T07:05:56.076Z,36.67
2022-10-22T07:08:23.244Z,38.05
2022-10-22T07:10:50.369Z,31.10
2022-10-22T07:13:17.483Z,34.38
2022-10-22T07:15:44.641Z,32.63
2022-10-22T07:18:11.798Z,34.92
2022-10-22T07:20:38.928Z,31.48
2022-10-22T07:23:06.076Z,38.95
2022-10-22T07:25:33.205Z,27.90
2022-10-22T07:28:00.352Z,31.13
2022-10-22T07:30:27.541Z,33.90
2022-10-22T07:32:54.674Z,32.08
2022-10-22T07:35:22.201Z,30.13
2022-10-22T07:37:49.368Z,26.40
2022-10-22T07:40:16.560Z,27.88
2022-10-22T07:42:43.687Z,22.08
2022-10-22T07:45:10.942Z,21.67
2022-10-22T07:47:38.271Z,26.88
2022-10-22T07:50:07.333Z,34.80
2022-10-22T07:52:34.588Z,20.20
2022-10-22T07:55:01.752Z,21.60
2022-10-22T07:57:28.901Z,24.52
2022-10-22T07:59:58.113Z,19.75
2022-10-22T08:02:26.102Z,20.98
2022-10-22T08:04:53.253Z,21.15
2022-10-22T08:07:20.433Z,23.27
2022-10-22T08:09:47.662Z,18.00
2022-10-22T08:12:15.080Z,18.15
2022-10-22T08:14:42.208Z,21.58
2022-10-22T08:17:09.424Z,15.38
2022-10-22T08:19:36.662Z,26.83
2022-10-22T08:22:04.191Z,19.17
2022-10-22T08:24:31.460Z,19.00
2022-10-22T08:26:58.597Z,23.13
2022-10-22T08:29:26.828Z,21.60
2022-10-22T08:31:54.561Z,19.05
2022-10-22T08:34:21.706Z,16.73
2022-10-22T08:36:48.835Z,20.35
2022-10-22T08:39:16.079Z,15.20
2022-10-22T08:41:52.314Z,16.55
2022-10-22T08:44:25.230Z,12.75
2022-10-22T08:46:52.623Z,17.92
2022-10-22T08:49:21.925Z,18.58
2022-10-22T08:51:49.134Z,14.57
2022-10-22T08:54:35.452Z,16.17
2022-10-22T08:57:21.320Z,15.63
2022-10-22T09:02:23.592Z,14.35
2022-10-22T09:04:56.481Z,17.38
2022-10-22T09:07:23.608Z,19.52
2022-10-22T09:09:51.739Z,17.42
2022-10-22T09:12:20.311Z,18.17
2022-10-22T09:14:47.901Z,13.82
2022-10-22T09:17:15.252Z,16.58
2022-10-22T09:19:48.199Z,15.98
2022-10-22T09:22:15.313Z,15.85
2022-10-22T09:24:47.029Z,18.92
2022-10-22T09:27:18.744Z,19.08
2022-10-22T09:29:46.585Z,11.80
2022-10-22T09:32:14.789Z,17.98
2022-10-22T09:34:42.041Z,13.85
2022-10-22T09:37:10.424Z,15.30
2022-10-22T09:39:42.232Z,16.23
2022-10-22T09:42:15.781Z,16.70
2022-10-22T09:44:46.312Z,12.65
2022-10-22T09:47:42.797Z,11.30
2022-10-22T09:50:22.811Z,13.48
2022-10-22T09:52:55.943Z,9.50
2022-10-22T09:55:25.541Z,10.63
2022-10-22T09:57:56.566Z,15.10
2022-10-22T10:00:25.087Z,15.52
2022-10-22T10:02:59.354Z,14.35
2022-10-22T10:05:37.679Z,14.38
2022-10-22T10:08:15.620Z,14.45
2022-10-22T10:10:46.643Z,12.60
2022-10-22T10:13:23.083Z,10.13
2022-10-22T10:15:50.257Z,14.90
2022-10-22T10:18:17.353Z,11.20
2022-10-22T10:20:50.301Z,12.75
2022-10-22T10:23:35.962Z,9.00
2022-10-22T10:28:30.132Z,13.88
2022-10-22T10:30:57.263Z,13.52
2022-10-22T10:33:29.419Z,11.07
2022-10-22T10:35:56.843Z,10.75
2022-10-22T10:38:39.784Z,8.93
2022-10-22T10:41:11.832Z,15.68
2022-10-22T10:43:38.960Z,14.98
2022-10-22T10:46:12.219Z,10.10
2022-10-22T10:48:39.357Z,12.95
2022-10-22T10:51:35.742Z,16.33
2022-10-22T10:54:21.643Z,18.90
2022-10-22T10:56:51.916Z,18.83
2022-10-22T10:59:19.022Z,11.57
2022-10-22T11:02:12.556Z,15.27
2022-10-22T11:04:51.583Z,13.80
2022-10-22T11:07:34.262Z,11.93
2022-10-22T11:10:34.589Z,19.45
2022-10-22T11:13:05.081Z,13.65
2022-10-22T11:15:33.900Z,16.58
2022-10-22T11:18:07.512Z,14.30
2022-10-22T11:20:40.709Z,15.60
2022-10-22T11:23:19.636Z,18.40
2022-10-22T11:25:49.323Z,16.42
2022-10-22T11:28:19.410Z,13.68
2022-10-22T11:30:48.150Z,13.73
2022-10-22T11:33:20.799Z,13.00
2022-10-22T11:35:48.965Z,13.82
2022-10-22T11:38:17.410Z,14.93
2022-10-22T11:40:48.191Z,16.13
2022-10-22T11:43:35.622Z,12.68
2022-10-22T11:46:23.073Z,15.27
2022-10-22T11:49:06.788Z,17.23
2022-10-22T11:51:34.037Z,17.83
2022-10-22T11:54:02.578Z,14.73
2022-10-22T11:56:37.793Z,12.73
2022-10-22T11:59:08.729Z,14.35
2022-10-22T12:01:42.841Z,17.70
2022-10-22T12:04:18.558Z,17.35
2022-10-22T12:06:53.113Z,13.43
2022-10-22T12:09:20.476Z,16.53
2022-10-22T12:11:48.867Z,14.85
2022-10-22T12:14:33.151Z,11.25
2022-10-22T12:17:10.804Z,10.20
2022-10-22T12:19:59.821Z,14.27
2022-10-22T12:22:33.282Z,12.55
2022-10-22T12:25:02.199Z,11.27
2022-10-22T12:27:35.140Z,14.20
2022-10-22T12:30:03.172Z,13.15
2022-10-22T12:32:37.731Z,19.45
2022-10-22T12:35:09.149Z,13.17
2022-10-22T12:37:37.231Z,14.93
2022-10-22T12:40:17.033Z,16.83
2022-10-22T12:42:51.486Z,21.45
2022-10-22T12:45:19.055Z,10.68
2022-10-22T12:47:47.749Z,12.07
2022-10-22T12:50:19.928Z,14.73
2022-10-22T12:52:48.153Z,16.42
2022-10-22T12:55:20.573Z,14.35
2022-10-22T12:57:48.861Z,11.80
2022-10-22T13:00:22.313Z,15.50
2022-10-22T13:02:49.878Z,9.15
2022-10-22T13:05:20.249Z,12.32
2022-10-22T13:07:55.008Z,10.43
2022-10-22T13:10:26.905Z,6.78
2022-10-22T13:12:57.785Z,11.93
2022-10-22T13:15:30.656Z,6.22
2022-10-22T13:18:03.879Z,12.35
2022-10-22T13:20:31.185Z,11.10
2022-10-22T13:23:03.281Z,10.43
2022-10-22T13:25:31.545Z,8.32
2022-10-22T13:28:04.092Z,10.57
2022-10-22T13:30:33.097Z,13.23
2022-10-22T13:33:07.534Z,14.55
2022-10-22T13:35:36.221Z,14.52
2022-10-22T13:38:04.051Z,14.95
2022-10-22T13:40:31.427Z,10.98
2022-10-22T13:42:58.611Z,13.68
2022-10-22T13:45:25.902Z,11.85
2022-10-22T13:47:54.089Z,17.83
2022-10-22T13:50:21.996Z,10.27
2022-10-22T13:52:54.097Z,13.32
2022-10-22T13:55:27.243Z,9.85
2022-10-22T13:57:56.966Z,13.82
2022-10-22T14:00:26.599Z,11.85
2022-10-22T14:02:55.117Z,14.00
2022-10-22T14:05:22.308Z,11.25
2022-10-22T14:07:49.609Z,10.30
2022-10-22T14:10:21.861Z,11.75
2022-10-22T14:12:52.419Z,12.35
2022-10-22T14:15:22.544Z,10.60
2022-10-22T14:17:52.493Z,14.43
2022-10-22T14:20:21.743Z,14.93
2022-10-22T14:22:49.681Z,17.83
2022-10-22T14:25:17.870Z,17.92
2022-10-22T14:27:45.091Z,15.57
2022-10-22T14:30:22.937Z,20.52
2022-10-22T14:32:50.335Z,13.20
2022-10-22T14:35:18.992Z,18.20
2022-10-22T14:37:46.297Z,12.63
2022-10-22T14:40:14.610Z,10.90
2022-10-22T14:42:43.151Z,15.13
2022-10-22T14:45:16.425Z,21.40
2022-10-22T14:47:43.840Z,12.73
2022-10-22T14:50:11.286Z,14.25
2022-10-22T14:52:38.744Z,11.82
2022-10-22T14:55:06.265Z,8.82
2022-10-22T14:57:33.489Z,12.60
2022-10-22T15:00:00.642Z,11.65
2022-10-22T15:02:27.797Z,12.30
2022-10-22T15:04:55.067Z,8.82
2022-10-22T15:07:24.644Z,12.23
2022-10-22T15:09:51.888Z,8.25
2022-10-22T15:12:20.581Z,8.57
2022-10-22T15:14:48.376Z,7.00
2022-10-22T15:17:16.352Z,7.40
2022-10-22T15:19:43.855Z,10.65
2022-10-22T15:22:14.299Z,7.18
2022-10-22T15:24:44.715Z,11.20
2022-10-22T15:27:15.489Z,10.55
2022-10-22T15:29:43.665Z,13.18
2022-10-22T15:32:10.824Z,13.05
2022-10-22T15:34:38.859Z,7.57
2022-10-22T15:37:07.942Z,13.35
2022-10-22T15:39:35.140Z,15.88
2022-10-22T15:42:02.255Z,16.25
2022-10-22T15:44:30.893Z,12.85
2022-10-22T15:46:58.530Z,11.00
2022-10-22T15:49:26.725Z,14.77
2022-10-22T15:51:54.311Z,10.63
2022-10-22T15:54:25.341Z,9.98
2022-10-22T15:56:52.721Z,13.00
2022-10-22T15:59:20.010Z,11.27
2022-10-22T16:01:47.301Z,16.75
2022-10-22T16:04:14.529Z,17.70
2022-10-22T16:06:42.936Z,19.63
2022-10-22T16:09:11.750Z,14.85
2022-10-22T16:11:39.298Z,12.43
2022-10-22T16:14:06.943Z,19.73
2022-10-22T16:16:35.488Z,10.23
2022-10-22T16:19:03.073Z,13.77
2022-10-22T16:21:30.274Z,15.15
2022-10-22T16:23:58.258Z,11.02
2022-10-22T16:26:27.289Z,16.58
2022-10-22T16:28:54.408Z,13.32
2022-10-22T16:31:21.552Z,17.95
2022-10-22T16:33:50.373Z,15.15
2022-10-22T16:36:18.910Z,15.13
2022-10-22T16:38:46.694Z,13.48
2022-10-22T16:41:15.560Z,13.23
2022-10-22T16:43:44.305Z,14.95
2022-10-22T16:46:12.091Z,22.88
2022-10-22T16:48:42.053Z,9.32
2022-10-22T16:51:10.204Z,16.50
2022-10-22T16:53:37.665Z,9.93
2022-10-22T16:56:05.045Z,10.05
2022-10-22T16:58:32.280Z,16.60
2022-10-22T17:00:59.544Z,22.42
2022-10-22T17:03:28.362Z,20.92
2022-10-22T17:05:58.713Z,21.02
2022-10-22T17:08:25.861Z,18.02
2022-10-22T17:10:53.002Z,17.20
2022-10-22T17:13:20.143Z,16.85
2022-10-22T17:15:47.335Z,15.60
2022-10-22T17:18:14.551Z,22.55
2022-10-22T17:20:43.236Z,18.92
2022-10-22T17:23:10.821Z,16.20
2022-10-22T17:25:42.971Z,13.88
2022-10-22T17:28:10.636Z,12.15
2022-10-22T17:30:39.047Z,15.27
2022-10-22T17:33:06.732Z,10.30
2022-10-22T17:35:34.367Z,16.95
2022-10-22T17:38:01.548Z,13.05
2022-10-22T17:40:28.785Z,17.55
2022-10-22T17:42:57.151Z,14.70
2022-10-22T17:45:24.339Z,15.50
2022-10-22T17:47:54.315Z,16.73
2022-10-22T17:50:21.453Z,12.10
2022-10-22T17:52:48.613Z,19.48
2022-10-22T17:55:15.888Z,18.88
2022-10-22T17:57:43.128Z,22.85
2022-10-22T18:00:10.615Z,29.75
2022-10-22T18:02:37.835Z,29.60
2022-10-22T18:05:05.203Z,25.60
2022-10-22T18:07:32.333Z,25.45
2022-10-22T18:09:59.489Z,20.45
2022-10-22T18:12:26.641Z,20.73
2022-10-22T18:14:54.452Z,25.33
2022-10-22T18:17:21.577Z,22.80
2022-10-22T18:19:49.498Z,23.23
2022-10-22T18:22:16.628Z,24.10
2022-10-22T18:24:43.766Z,22.80
2022-10-22T18:27:10.893Z,23.48
2022-10-22T18:29:38.039Z,17.58
2022-10-22T18:32:12.167Z,23.00
2022-10-22T18:34:40.448Z,21.33
2022-10-22T18:37:07.577Z,27.10
2022-10-22T18:39:35.557Z,23.92
2022-10-22T18:42:06.419Z,25.90
2022-10-22T18:44:34.654Z,21.58
2022-10-22T18:47:01.779Z,18.48
2022-10-22T18:49:28.921Z,21.13
2022-10-22T18:51:56.100Z,24.23
2022-10-22T18:54:24.398Z,21.35
2022-10-22T18:56:52.698Z,22.77
2022-10-22T18:59:22.776Z,29.38
2022-10-22T19:01:51.269Z,22.13
2022-10-22T19:04:18.449Z,24.20
2022-10-22T19:06:46.100Z,29.17
2022-10-22T19:09:14.140Z,30.67
2022-10-22T19:11:41.360Z,23.98
2022-10-22T19:14:08.546Z,23.70
2022-10-22T19:16:37.591Z,20.42
2022-10-22T19:19:05.832Z,25.77
2022-10-22T19:21:33.477Z,22.40
2022-10-22T19:24:01.169Z,22.67
2022-10-22T19:26:29.261Z,23.40
2022-10-22T19:28:57.587Z,30.73
2022-10-22T19:31:25.757Z,26.08
2022-10-22T19:33:55.316Z,19.42
2022-10-22T19:36:24.392Z,21.38
2022-10-22T19:38:51.973Z,20.55
2022-10-22T19:41:20.331Z,25.92
2022-10-22T19:43:49.342Z,26.98
2022-10-22T19:46:16.793Z,27.55
2022-10-22T19:51:17.632Z,22.02
2022-10-22T19:53:44.776Z,26.63
2022-10-22T19:56:12.846Z,33.75
2022-10-22T19:58:39.979Z,23.00
2022-10-22T20:01:07.875Z,33.00
2022-10-22T20:03:36.316Z,22.73
2022-10-22T20:06:04.420Z,28.13
2022-10-22T20:08:32.239Z,30.40
2022-10-22T20:10:59.425Z,31.48
2022-10-22T20:13:26.685Z,24.27
2022-10-22T20:15:53.832Z,28.05
2022-10-22T20:18:22.514Z,38.33
2022-10-22T20:20:49.821Z,24.15
2022-10-22T20:23:16.973Z,31.38
2022-10-22T20:25:45.273Z,27.77
2022-10-22T20:28:14.142Z,31.67
2022-10-22T20:30:45.000Z,21.83
2022-10-22T20:33:12.218Z,27.20
2022-10-22T20:35:39.764Z,25.85
2022-10-22T20:38:07.617Z,29.27
2022-10-22T20:40:35.177Z,25.02
2022-10-22T20:43:02.626Z,28.42
2022-10-22T20:45:30.022Z,29.27
2022-10-22T20:48:02.714Z,30.00
2022-10-22T20:50:33.988Z,31.85
2022-10-22T20:53:01.162Z,26.02
2022-10-22T20:55:28.446Z,30.75
2022-10-22T20:57:55.896Z,38.03
2022-10-22T21:00:23.109Z,30.80
2022-10-22T21:02:50.303Z,32.28
2022-10-22T21:05:17.491Z,26.77
2022-10-22T21:07:44.814Z,28.15
2022-10-22T21:10:12.025Z,28.50
2022-10-22T21:12:42.008Z,28.65
2022-10-22T21:15:12.557Z,28.10
2022-10-22T21:17:40.680Z,33.92
2022-10-22T21:20:08.109Z,30.15
2022-10-22T21:22:35.318Z,29.63
2022-10-22T21:25:02.459Z,26.25
2022-10-22T21:27:29.616Z,30.23
2022-10-22T21:29:56.785Z,27.95
2022-10-22T21:32:25.156Z,27.92
2022-10-22T21:34:52.331Z,31.00
2022-10-22T21:37:19.544Z,27.50
2022-10-22T21:39:46.848Z,30.58
2022-10-22T21:42:17.111Z,30.83
2022-10-22T21:44:44.244Z,34.17
2022-10-22T21:47:11.432Z,30.98
2022-10-22T21:49:38.644Z,32.55
2022-10-22T21:52:07.134Z,38.47
2022-10-22T21:54:37.286Z,33.75
2022-10-22T21:57:04.973Z,35.05
2022-10-22T21:59:32.440Z,37.63
2022-10-22T22:02:04.824Z,41.65
2022-10-22T22:04:33.400Z,35.33
2022-10-22T22:07:00.529Z,37.92
2022-10-22T22:09:27.673Z,36.97
2022-10-22T22:11:54.825Z,34.35
2022-10-22T22:14:22.018Z,30.35
2022-10-22T22:16:49.253Z,36.38
2022-10-22T22:19:16.396Z,35.60
2022-10-22T22:21:43.569Z,31.15
2022-10-22T22:24:12.378Z,37.08
2022-10-22T22:26:40.080Z,31.95
2022-10-22T22:29:07.254Z,31.13
2022-10-22T22:31:35.429Z,33.38
2022-10-22T22:34:06.923Z,32.90
2022-10-22T22:36:35.861Z,29.77
2022-10-22T22:39:03.281Z,33.42
2022-10-22T22:41:30.503Z,35.38
2022-10-22T22:43:57.663Z,30.05
2022-10-22T22:46:24.808Z,33.90
2022-10-22T22:48:52.028Z,31.80
2022-10-22T22:51:19.365Z,38.53
2022-10-22T22:53:46.651Z,38.90
2022-10-22T22:56:15.620Z,34.78
2022-10-22T22:58:43.157Z,28.25
2022-10-22T23:01:15.265Z,35.58
2022-10-22T23:03:43.050Z,37.45
2022-10-22T23:06:10.326Z,32.95
2022-10-22T23:08:37.553Z,36.38
2022-10-22T23:11:05.921Z,31.48
2022-10-22T23:13:33.422Z,32.05
2022-10-22T23:16:00.590Z,31.33
2022-10-22T23:18:27.756Z,29.27
2022-10-22T23:20:54.902Z,29.25
2022-10-22T23:23:22.096Z,34.58
2022-10-22T23:25:49.340Z,29.98
2022-10-22T23:28:16.542Z,29.25
2022-10-22T23:30:45.253Z,28.75
2022-10-22T23:33:12.596Z,33.17
2022-10-22T23:35:41.497Z,28.55
2022-10-22T23:38:08.860Z,31.42
2022-10-22T23:40:36.177Z,32.97
2022-10-22T23:43:03.931Z,33.05
2022-10-22T23:45:31.218Z,32.55
2022-10-22T23:47:58.409Z,37.17
2022-10-22T23:50:25.674Z,27.70
2022-10-22T23:52:52.890Z,27.45
2022-10-22T23:55:20.464Z,28.73
2022-10-22T23:57:47.607Z,34.05
